Terminal Aerodrome Forecast
Issued by NWS

Home | Current Version | Previous Version | Text Only | Print | Product List | Glossary On
Versions: 1 2 3 4 5 6 7 8 9 10 11 12 13 14 15 16 17 18 19
000
FTUS45 KBOI 200528
TAFTWF
TAF
KTWF 200528Z 2006/2106 19007KT P6SM BKN035
     FM201800 12014G24KT P6SM OVC035
     FM210100 12014KT 2SM -SHSN SCT010 OVC020=

USA.gov is the U.S. government's official web portal to all federal, state and local government web resources and services.